Time;durP1;ratioP1;P1;durP2;ratioP2;P2;SDS_P1;SDS_P2;PMS_P1;PMS_P2;Temp;Humidity;BMP_temperature;BMP_pressure;BME280_temperature;BME280_humidity;BME280_pressure;Samples;Min_cycle;Max_cycle;Signal;HPM_P1;HPM_P2
2023/06/06 00:01:43;;;;;;;1999.90;999.90;;;12.10;99.90;;;;;;5052533;28;20393;-73
2023/06/06 00:04:09;;;;;;;1999.90;999.90;;;12.10;99.90;;;;;;5053466;28;20078;-73
2023/06/06 00:06:35;;;;;;;1999.90;999.90;;;12.10;99.90;;;;;;5053495;28;20045;-73
2023/06/06 00:09:02;;;;;;;1999.90;999.90;;;12.10;99.90;;;;;;5053940;28;20055;-73
2023/06/06 00:11:28;;;;;;;1999.90;999.90;;;12.10;99.90;;;;;;5053275;28;20045;-73
2023/06/06 00:13:56;;;;;;;1999.90;999.90;;;12.10;99.90;;;;;;5053424;28;20051;-73
2023/06/06 00:16:23;;;;;;;1999.90;999.90;;;12.10;99.90;;;;;;5053346;28;20055;-73
2023/06/06 00:18:52;;;;;;;1999.90;999.90;;;12.10;99.90;;;;;;5054075;28;20123;-73
2023/06/06 00:21:21;;;;;;;1999.90;999.90;;;12.00;99.90;;;;;;5053291;28;20489;-73
2023/06/06 00:23:47;;;;;;;1999.90;999.90;;;12.00;99.90;;;;;;5053279;28;20140;-73
2023/06/06 00:26:13;;;;;;;1999.90;999.90;;;12.10;99.90;;;;;;5053730;28;20048;-73
2023/06/06 00:28:39;;;;;;;1999.90;999.90;;;12.00;99.90;;;;;;5053141;28;20048;-74
2023/06/06 00:31:04;;;;;;;1999.90;999.90;;;12.10;99.90;;;;;;5053166;28;20092;-73
2023/06/06 00:33:30;;;;;;;1999.90;999.90;;;12.00;99.90;;;;;;5052711;28;20085;-73
2023/06/06 00:35:56;;;;;;;1999.90;999.90;;;12.00;99.90;;;;;;5054918;28;20053;-73
2023/06/06 00:38:22;;;;;;;1999.90;999.90;;;12.00;99.90;;;;;;5057435;28;20102;-73
2023/06/06 00:40:47;;;;;;;1999.90;999.90;;;12.00;99.90;;;;;;5057138;28;20128;-73
2023/06/06 00:43:13;;;;;;;1999.90;999.90;;;12.00;99.90;;;;;;5057052;28;20132;-73
2023/06/06 00:45:39;;;;;;;1999.90;999.90;;;12.00;99.90;;;;;;5057124;28;20045;-72
2023/06/06 00:48:05;;;;;;;1999.90;999.90;;;11.90;99.90;;;;;;5057278;28;20396;-73
2023/06/06 00:50:32;;;;;;;1999.90;999.90;;;12.00;99.90;;;;;;5056970;28;20179;-73
2023/06/06 00:52:58;;;;;;;1999.90;999.90;;;11.90;99.90;;;;;;5057929;28;20094;-72
2023/06/06 00:55:24;;;;;;;1999.90;999.90;;;11.90;99.90;;;;;;5056939;28;20101;-73
2023/06/06 00:57:51;;;;;;;1999.90;999.90;;;11.90;99.90;;;;;;5057606;28;20041;-73
2023/06/06 01:00:18;;;;;;;1999.90;999.90;;;11.90;99.90;;;;;;5055772;28;20052;-73
2023/06/06 01:02:47;;;;;;;1999.90;999.90;;;11.90;99.90;;;;;;5057335;28;20055;-73
2023/06/06 01:05:15;;;;;;;1999.90;999.90;;;11.90;99.90;;;;;;5057426;28;20044;-72
2023/06/06 01:07:43;;;;;;;1999.90;999.90;;;11.80;99.90;;;;;;5057896;28;20052;-73
2023/06/06 01:10:10;;;;;;;1999.90;999.90;;;11.80;99.90;;;;;;5057102;28;20051;-73
2023/06/06 01:12:48;;;;;;;1999.90;999.90;;;11.80;99.90;;;;;;5057179;28;20037;-73
2023/06/06 01:15:16;;;;;;;1999.90;999.90;;;11.80;99.90;;;;;;5055748;28;20049;-73
2023/06/06 01:17:42;;;;;;;1999.90;999.90;;;11.70;99.90;;;;;;5056389;28;20048;-72
2023/06/06 01:20:10;;;;;;;1999.90;999.90;;;11.70;99.90;;;;;;5056335;28;20048;-73
2023/06/06 01:22:37;;;;;;;1999.90;999.90;;;11.70;99.90;;;;;;5056363;28;20048;-73
2023/06/06 01:25:03;;;;;;;1999.90;999.90;;;11.70;99.90;;;;;;5055064;28;20052;-73
2023/06/06 01:27:33;;;;;;;1999.90;999.90;;;11.60;99.90;;;;;;5056218;28;20080;-74
2023/06/06 01:30:03;;;;;;;1999.90;999.90;;;11.60;99.90;;;;;;5055715;28;20493;-73
2023/06/06 01:32:43;;;;;;;1999.90;999.90;;;11.50;99.90;;;;;;5056679;28;20101;-73
2023/06/06 01:35:28;;;;;;;1999.90;999.90;;;11.50;99.90;;;;;;5055979;28;20563;-73
2023/06/06 01:38:24;;;;;;;1999.90;999.90;;;11.50;99.90;;;;;;5056853;28;20048;-72
2023/06/06 01:40:53;;;;;;;1999.90;999.90;;;11.40;99.90;;;;;;5056000;28;20045;-72
2023/06/06 01:43:20;;;;;;;1999.90;999.90;;;11.40;99.90;;;;;;5055948;28;20056;-73
2023/06/06 01:45:48;;;;;;;1999.90;999.90;;;11.40;99.90;;;;;;5054519;28;20083;-73
2023/06/06 01:48:13;;;;;;;1999.90;999.90;;;11.40;99.90;;;;;;5055885;28;20049;-73
2023/06/06 01:50:39;;;;;;;1999.90;999.90;;;11.40;99.90;;;;;;5056097;28;20045;-73
2023/06/06 01:53:05;;;;;;;1999.90;999.90;;;11.40;99.90;;;;;;5055134;28;20099;-73
2023/06/06 01:55:31;;;;;;;1999.90;999.90;;;11.40;99.90;;;;;;5055791;28;20045;-73
2023/06/06 01:57:57;;;;;;;1999.90;999.90;;;11.40;99.90;;;;;;5055653;28;20041;-72
2023/06/06 02:00:23;;;;;;;1999.90;999.90;;;11.40;99.90;;;;;;5055502;28;20110;-73
2023/06/06 02:02:48;;;;;;;1999.90;999.90;;;11.40;99.90;;;;;;5055667;28;20045;-73
2023/06/06 02:05:14;;;;;;;1999.90;999.90;;;11.40;99.90;;;;;;5055550;28;20045;-73
2023/06/06 02:07:41;;;;;;;1999.90;999.90;;;11.40;99.90;;;;;;5055483;28;20052;-73
2023/06/06 02:10:07;;;;;;;1999.90;999.90;;;11.40;99.90;;;;;;5055286;28;20044;-72
2023/06/06 02:12:33;;;;;;;1999.90;999.90;;;11.40;99.90;;;;;;5055313;28;20056;-73
2023/06/06 02:15:01;;;;;;;1999.90;999.90;;;11.40;99.90;;;;;;5056120;28;20045;-73
2023/06/06 02:17:27;;;;;;;1999.90;999.90;;;11.40;99.90;;;;;;5054202;28;20130;-73
2023/06/06 02:19:52;;;;;;;1999.90;999.90;;;11.40;99.90;;;;;;5054275;28;20060;-73
2023/06/06 02:22:18;;;;;;;1999.90;999.90;;;11.40;99.90;;;;;;5055301;28;20052;-73
2023/06/06 02:24:44;;;;;;;1999.90;999.90;;;11.50;99.90;;;;;;5053987;28;20041;-73
2023/06/06 02:27:10;;;;;;;1999.90;999.90;;;11.50;99.90;;;;;;5055674;28;20131;-73
2023/06/06 02:29:36;;;;;;;1999.90;999.90;;;11.50;99.90;;;;;;5054983;28;20045;-73
2023/06/06 02:32:03;;;;;;;1999.90;999.90;;;11.50;99.90;;;;;;5054623;28;20220;-73
2023/06/06 02:34:29;;;;;;;1999.90;999.90;;;11.50;99.90;;;;;;5053785;28;20139;-73
2023/06/06 02:36:56;;;;;;;1999.90;999.90;;;11.50;99.90;;;;;;5055250;28;20499;-73
2023/06/06 02:39:22;;;;;;;1999.90;999.90;;;11.50;99.90;;;;;;5054838;28;20052;-73
2023/06/06 02:41:50;;;;;;;1999.90;999.90;;;11.50;99.90;;;;;;5055431;28;20045;-72
2023/06/06 02:44:17;;;;;;;1999.90;999.90;;;11.50;99.90;;;;;;5054820;28;20044;-73
2023/06/06 02:46:43;;;;;;;1999.90;999.90;;;11.50;99.90;;;;;;5054779;28;20053;-73
2023/06/06 02:49:09;;;;;;;1999.90;999.90;;;11.50;99.90;;;;;;5053582;28;20072;-73
2023/06/06 02:51:36;;;;;;;1999.90;999.90;;;11.50;99.90;;;;;;5055379;28;20325;-72
2023/06/06 02:54:02;;;;;;;1999.90;999.90;;;11.50;99.90;;;;;;5055155;28;20057;-72
2023/06/06 02:56:28;;;;;;;1999.90;999.90;;;11.50;99.90;;;;;;5054340;28;20595;-73
2023/06/06 02:58:54;;;;;;;1999.90;999.90;;;11.50;99.90;;;;;;5053825;28;20056;-73
2023/06/06 03:01:21;;;;;;;1999.90;999.90;;;11.50;99.90;;;;;;5054496;28;20045;-73
2023/06/06 03:03:47;;;;;;;1999.90;999.90;;;11.50;99.90;;;;;;5054409;28;20059;-72
2023/06/06 03:06:15;;;;;;;1999.90;999.90;;;11.50;99.90;;;;;;5054384;28;20053;-72
2023/06/06 03:08:44;;;;;;;1999.90;999.90;;;11.50;99.90;;;;;;5054371;28;20045;-73
2023/06/06 03:11:11;;;;;;;1999.90;999.90;;;11.50;99.90;;;;;;5054177;28;20514;-73
2023/06/06 03:13:37;;;;;;;1999.90;999.90;;;11.50;99.90;;;;;;5054317;28;20053;-73
2023/06/06 03:16:03;;;;;;;1999.90;999.90;;;11.50;99.90;;;;;;5054216;28;20056;-73
2023/06/06 03:18:28;;;;;;;1999.90;999.90;;;11.50;99.90;;;;;;5054215;28;20040;-73
2023/06/06 03:20:54;;;;;;;1999.90;999.90;;;11.50;99.90;;;;;;5054157;28;20037;-72
2023/06/06 03:23:21;;;;;;;1999.90;999.90;;;11.50;99.90;;;;;;5054125;28;20040;-73
2023/06/06 03:25:51;;;;;;;1999.90;999.90;;;11.60;99.90;;;;;;5054012;28;20079;-73
2023/06/06 03:28:21;;;;;;;1999.90;999.90;;;11.50;99.90;;;;;;5036760;28;20053;-74
2023/06/06 03:30:46;;;;;;;1999.90;999.90;;;11.50;99.90;;;;;;5053888;28;20056;-73
2023/06/06 03:33:13;;;;;;;1999.90;999.90;;;11.50;99.90;;;;;;5053838;28;20405;-73
2023/06/06 03:35:38;;;;;;;1999.90;999.90;;;11.60;99.90;;;;;;5054714;28;20511;-73
2023/06/06 03:38:04;;;;;;;1999.90;999.90;;;11.50;99.90;;;;;;5054384;28;20084;-73
2023/06/06 03:40:30;;;;;;;1999.90;999.90;;;11.50;99.90;;;;;;5053805;28;20041;-73
2023/06/06 03:42:57;;;;;;;1999.90;999.90;;;11.60;99.90;;;;;;5053779;28;20611;-73
2023/06/06 03:45:22;;;;;;;1999.90;999.90;;;11.50;99.90;;;;;;5053798;28;20516;-73
2023/06/06 03:47:51;;;;;;;1999.90;999.90;;;11.50;99.90;;;;;;5054522;28;20079;-74
2023/06/06 03:50:21;;;;;;;1999.90;999.90;;;11.50;99.90;;;;;;5052491;28;20447;-73
2023/06/06 03:52:47;;;;;;;1999.90;999.90;;;11.50;99.90;;;;;;5054196;28;20045;-73
2023/06/06 03:55:13;;;;;;;1999.90;999.90;;;11.50;99.90;;;;;;5053576;28;20041;-73
2023/06/06 03:57:39;;;;;;;1999.90;999.90;;;11.50;99.90;;;;;;5053853;28;20044;-73
2023/06/06 04:00:16;;;;;;;1999.90;999.90;;;11.50;99.90;;;;;;5052301;28;20124;-73
2023/06/06 04:02:42;;;;;;;1999.90;999.90;;;11.50;99.90;;;;;;5053630;28;20045;-73
2023/06/06 04:05:08;;;;;;;1999.90;999.90;;;11.50;99.90;;;;;;5053566;28;20449;-73
2023/06/06 04:07:36;;;;;;;1999.90;999.90;;;11.60;99.90;;;;;;5053596;28;20060;-73
2023/06/06 04:10:02;;;;;;;1999.90;999.90;;;11.50;99.90;;;;;;5054431;28;20439;-73
2023/06/06 04:12:28;;;;;;;1999.90;999.90;;;11.60;99.90;;;;;;5053367;28;20526;-73
2023/06/06 04:14:53;;;;;;;1999.90;999.90;;;11.50;99.90;;;;;;5053638;28;20045;-72
2023/06/06 04:17:21;;;;;;;1999.90;999.90;;;11.60;99.90;;;;;;5053315;28;20342;-73
2023/06/06 04:19:47;;;;;;;1999.90;999.90;;;11.60;99.90;;;;;;5053386;28;20045;-73
2023/06/06 04:22:18;;;;;;;1999.90;999.90;;;11.60;99.90;;;;;;5052142;28;20049;-73
2023/06/06 04:24:43;;;;;;;1999.90;999.90;;;11.60;99.90;;;;;;5052791;28;20049;-74
2023/06/06 04:27:09;;;;;;;1999.90;999.90;;;11.60;99.90;;;;;;5052408;28;20599;-73
2023/06/06 04:29:35;;;;;;;1999.90;999.90;;;11.70;99.90;;;;;;5053572;28;20075;-73
2023/06/06 04:32:02;;;;;;;1999.90;999.90;;;10.50;99.90;;;;;;5052309;28;20056;-73
2023/06/06 04:34:31;;;;;;;1999.90;999.90;;;11.70;99.90;;;;;;5054041;28;20045;-73
2023/06/06 04:37:03;;;;;;;1999.90;999.90;;;11.70;99.90;;;;;;5053518;28;20045;-73
2023/06/06 04:39:34;;;;;;;1999.90;999.90;;;11.70;99.90;;;;;;5052595;28;20080;-75
2023/06/06 04:42:07;;;;;;;1999.90;999.90;;;11.70;99.90;;;;;;5053289;28;20546;-73
2023/06/06 04:44:34;;;;;;;1999.90;999.90;;;11.80;99.90;;;;;;5053202;28;20041;-73
2023/06/06 04:47:01;;;;;;;1999.90;999.90;;;11.80;99.90;;;;;;5052948;28;20044;-73
2023/06/06 04:49:35;;;;;;;1999.90;999.90;;;11.80;99.90;;;;;;5051903;28;20128;-73
2023/06/06 04:52:08;;;;;;;1999.90;999.90;;;11.90;99.90;;;;;;5053342;28;20045;-73
2023/06/06 04:54:38;;;;;;;1999.90;999.90;;;12.10;99.90;;;;;;5053149;28;20080;-73
2023/06/06 04:57:06;;;;;;;1999.90;999.90;;;11.90;99.90;;;;;;5053922;28;20075;-73
2023/06/06 04:59:33;;;;;;;1999.90;999.90;;;11.90;99.90;;;;;;5053663;28;20389;-73
2023/06/06 05:02:01;;;;;;;1999.90;999.90;;;12.00;99.90;;;;;;5054151;28;20515;-73
2023/06/06 05:04:29;;;;;;;1999.90;999.90;;;12.00;99.90;;;;;;5052756;28;20457;-73
2023/06/06 05:06:56;;;;;;;1999.90;999.90;;;12.00;99.90;;;;;;5052030;28;20045;-73
2023/06/06 05:09:21;;;;;;;1999.90;999.90;;;12.10;99.90;;;;;;5051839;28;20057;-73
2023/06/06 05:11:49;;;;;;;1999.90;999.90;;;12.10;99.90;;;;;;5053402;28;20045;-72
2023/06/06 05:14:16;;;;;;;1999.90;999.90;;;12.10;99.90;;;;;;5053686;28;20114;-73
2023/06/06 05:16:46;;;;;;;1999.90;999.90;;;12.20;99.90;;;;;;5052695;28;20057;-73
2023/06/06 05:19:15;;;;;;;1999.90;999.90;;;12.20;99.90;;;;;;5052851;28;20053;-73
2023/06/06 05:21:41;;;;;;;1999.90;999.90;;;12.20;99.90;;;;;;5053074;28;20096;-73
2023/06/06 05:24:07;;;;;;;1999.90;999.90;;;12.30;99.90;;;;;;5056396;28;20091;-74
2023/06/06 05:26:32;;;;;;;1999.90;999.90;;;12.30;99.90;;;;;;5056375;28;20048;-73
2023/06/06 05:28:59;;;;;;;1999.90;999.90;;;12.30;99.90;;;;;;5056339;28;20041;-73
2023/06/06 05:31:25;;;;;;;1999.90;999.90;;;12.30;99.90;;;;;;5055608;28;20052;-72
2023/06/06 05:33:52;;;;;;;1999.90;999.90;;;12.30;99.90;;;;;;5056230;28;20056;-73
2023/06/06 05:36:18;;;;;;;1999.90;999.90;;;12.30;99.90;;;;;;5056415;28;20431;-73
2023/06/06 05:38:43;;;;;;;1999.90;999.90;;;12.40;99.90;;;;;;5056348;28;20052;-73
2023/06/06 05:41:09;;;;;;;1999.90;999.90;;;12.30;99.90;;;;;;5056555;28;20429;-74
2023/06/06 05:43:35;;;;;;;1999.90;999.90;;;12.40;99.90;;;;;;5056783;28;20103;-74
2023/06/06 05:46:01;;;;;;;1999.90;999.90;;;12.40;99.90;;;;;;5054430;28;20041;-74
2023/06/06 05:48:28;;;;;;;1999.90;999.90;;;12.40;99.90;;;;;;5056172;28;20095;-74
2023/06/06 05:50:54;;;;;;;1999.90;999.90;;;12.50;99.90;;;;;;5055798;28;20043;-73
2023/06/06 05:53:21;;;;;;;1999.90;999.90;;;12.50;99.90;;;;;;5054802;28;20041;-74
2023/06/06 05:55:47;;;;;;;1999.90;999.90;;;12.50;99.90;;;;;;5055783;28;20052;-71
2023/06/06 05:58:13;;;;;;;1999.90;999.90;;;12.60;99.90;;;;;;5056243;28;20099;-73
2023/06/06 06:00:38;;;;;;;1999.90;999.90;;;12.60;99.90;;;;;;5055593;28;20084;-73
2023/06/06 06:03:04;;;;;;;1999.90;999.90;;;12.70;99.90;;;;;;5055673;28;20045;-73
2023/06/06 06:05:31;;;;;;;1999.90;999.90;;;12.60;99.90;;;;;;5055642;28;20102;-73
2023/06/06 06:08:01;;;;;;;1999.90;999.90;;;12.70;99.90;;;;;;5055245;28;20045;-73
2023/06/06 06:10:27;;;;;;;1999.90;999.90;;;12.80;99.90;;;;;;5056089;28;20370;-74
2023/06/06 06:12:53;;;;;;;1999.90;999.90;;;12.80;99.90;;;;;;5054338;28;20052;-71
2023/06/06 06:15:18;;;;;;;1999.90;999.90;;;12.90;99.90;;;;;;5055393;28;20175;-72
2023/06/06 06:17:45;;;;;;;1999.90;999.90;;;12.90;99.90;;;;;;5055785;28;20094;-72
2023/06/06 06:20:13;;;;;;;1999.90;999.90;;;12.90;99.90;;;;;;5056448;28;20469;-72
2023/06/06 06:22:39;;;;;;;1999.90;999.90;;;12.90;99.90;;;;;;5054528;28;20065;-72
2023/06/06 06:25:08;;;;;;;1999.90;999.90;;;12.90;99.90;;;;;;5055285;28;20040;-72
2023/06/06 06:27:37;;;;;;;1999.90;999.90;;;12.90;99.90;;;;;;5055214;28;20049;-72
2023/06/06 06:30:04;;;;;;;1999.90;999.90;;;12.90;99.90;;;;;;5055072;28;20048;-72
2023/06/06 06:32:31;;;;;;;1999.90;999.90;;;12.90;99.90;;;;;;5054026;28;20065;-72
2023/06/06 06:34:57;;;;;;;1999.90;999.90;;;12.90;99.90;;;;;;5054741;28;20052;-72
2023/06/06 06:37:23;;;;;;;1999.90;999.90;;;12.90;99.90;;;;;;5055082;28;20041;-72
2023/06/06 06:39:49;;;;;;;1999.90;999.90;;;12.90;99.90;;;;;;5055042;28;20051;-72
2023/06/06 06:42:15;;;;;;;1999.90;999.90;;;12.90;99.90;;;;;;5054279;28;20460;-72
2023/06/06 06:44:40;;;;;;;1999.90;999.90;;;13.00;99.90;;;;;;5054912;28;20087;-72
2023/06/06 06:47:06;;;;;;;1999.90;999.90;;;13.00;99.90;;;;;;5054802;28;20447;-73
2023/06/06 06:49:32;;;;;;;1999.90;999.90;;;13.00;99.90;;;;;;5054759;28;20084;-72
2023/06/06 06:51:58;;;;;;;1999.90;999.90;;;13.00;99.90;;;;;;5036981;28;20048;-72
2023/06/06 06:54:26;;;;;;;1999.90;999.90;;;13.10;99.90;;;;;;5053710;28;20350;-73
2023/06/06 06:56:53;;;;;;;1999.90;999.90;;;13.10;99.90;;;;;;5054710;28;20052;-72
2023/06/06 06:59:20;;;;;;;1999.90;999.90;;;13.10;99.90;;;;;;5054518;28;20052;-73
2023/06/06 07:01:49;;;;;;;1999.90;999.90;;;13.20;99.90;;;;;;5055142;28;20045;-73
2023/06/06 07:04:17;;;;;;;1999.90;999.90;;;13.20;99.90;;;;;;5055070;28;20045;-73
2023/06/06 07:06:46;;;;;;;1999.90;999.90;;;13.30;99.90;;;;;;5054445;28;20049;-72
2023/06/06 07:09:13;;;;;;;1999.90;999.90;;;13.30;99.90;;;;;;5054422;28;20439;-73
2023/06/06 07:11:39;;;;;;;1999.90;999.90;;;13.40;99.90;;;;;;5053227;28;20060;-73
2023/06/06 07:14:05;;;;;;;1999.90;999.90;;;13.40;99.90;;;;;;5054264;28;20049;-74
2023/06/06 07:16:31;;;;;;;1999.90;999.90;;;13.50;99.90;;;;;;5053964;28;20503;-73
2023/06/06 07:18:57;;;;;;;1999.90;999.90;;;13.50;99.90;;;;;;5054246;28;20047;-73
2023/06/06 07:21:25;;;;;;;1999.90;999.90;;;13.60;99.90;;;;;;5054159;28;20127;-73
2023/06/06 07:23:51;;;;;;;1999.90;999.90;;;13.70;99.90;;;;;;5054601;28;20427;-73
2023/06/06 07:26:19;;;;;;;1999.90;999.90;;;13.60;99.90;;;;;;5062312;28;20476;-72
2023/06/06 07:28:46;;;;;;;1999.90;999.90;;;13.70;99.90;;;;;;5054380;28;20053;-73
2023/06/06 07:31:13;;;;;;;1999.90;999.90;;;13.70;99.90;;;;;;5053856;28;20049;-73
2023/06/06 07:33:40;;;;;;;1999.90;999.90;;;13.80;99.90;;;;;;5052628;28;20484;-74
2023/06/06 07:36:07;;;;;;;1999.90;999.90;;;13.80;99.90;;;;;;5053898;28;20045;-73
2023/06/06 07:38:34;;;;;;;1999.90;999.90;;;13.80;99.90;;;;;;5053839;28;20087;-73
2023/06/06 07:41:00;;;;;;;1999.90;999.90;;;13.90;99.90;;;;;;5053871;28;20040;-74
2023/06/06 07:43:25;;;;;;;1999.90;999.90;;;13.90;99.90;;;;;;5053808;28;20052;-73
2023/06/06 07:45:51;;;;;;;1999.90;999.90;;;14.00;99.90;;;;;;5053367;28;20049;-73
2023/06/06 07:48:17;;;;;;;1999.90;999.90;;;14.00;99.90;;;;;;5053751;28;20047;-74
2023/06/06 07:50:43;;;;;;;1999.90;999.90;;;14.00;99.90;;;;;;5035759;28;20045;-73
2023/06/06 07:53:12;;;;;;;1999.90;999.90;;;14.10;99.90;;;;;;5053601;28;20397;-73
2023/06/06 07:55:38;;;;;;;1999.90;999.90;;;14.10;99.90;;;;;;5054098;28;20045;-74
2023/06/06 07:58:10;;;;;;;1999.90;999.90;;;14.20;99.90;;;;;;5053594;28;20125;-75
2023/06/06 08:00:44;;;;;;;1999.90;999.90;;;14.20;99.90;;;;;;5053635;28;20095;-74
2023/06/06 08:03:11;;;;;;;1999.90;999.90;;;14.30;99.90;;;;;;5053663;28;20088;-74
2023/06/06 08:05:38;;;;;;;1999.90;999.90;;;14.30;99.90;;;;;;5053638;28;20041;-74
2023/06/06 08:08:06;;;;;;;1999.90;999.90;;;14.40;99.90;;;;;;5053611;28;20045;-74
2023/06/06 08:10:32;;;;;;;1999.90;999.90;;;14.40;99.90;;;;;;5052543;28;20473;-73
2023/06/06 08:12:59;;;;;;;1999.90;999.90;;;14.50;99.90;;;;;;5054068;28;20392;-73
2023/06/06 08:15:25;;;;;;;1999.90;999.90;;;14.50;99.90;;;;;;5053535;28;20118;-74
2023/06/06 08:17:51;;;;;;;1999.90;999.90;;;14.50;99.90;;;;;;5053558;28;20472;-73
2023/06/06 08:20:17;;;;;;;1999.90;999.90;;;14.60;99.90;;;;;;5054306;28;20474;-73
2023/06/06 08:22:52;;;;;;;1999.90;999.90;;;14.60;99.90;;;;;;5053480;28;20048;-73
2023/06/06 08:25:18;;;;;;;1999.90;999.90;;;14.70;99.90;;;;;;5036162;28;20465;-74
2023/06/06 08:27:44;;;;;;;1999.90;999.90;;;14.80;99.90;;;;;;5054273;28;20052;-74
2023/06/06 08:30:10;;;;;;;1999.90;999.90;;;14.80;99.90;;;;;;5052484;28;20526;-73
2023/06/06 08:32:37;;;;;;;1999.90;999.90;;;14.90;99.90;;;;;;5053877;28;20061;-72
2023/06/06 08:35:03;;;;;;;1999.90;999.90;;;14.90;99.90;;;;;;5053719;28;20556;-73
2023/06/06 08:37:30;;;;;;;1999.90;999.90;;;15.00;99.90;;;;;;5053891;28;20045;-74
2023/06/06 08:39:56;;;;;;;1999.90;999.90;;;15.10;99.90;;;;;;5053627;28;20440;-74
2023/06/06 08:42:24;;;;;;;1999.90;999.90;;;15.20;99.90;;;;;;5053339;28;20187;-73
2023/06/06 08:44:52;;;;;;;1999.90;999.90;;;15.20;99.90;;;;;;5035413;28;20134;-72
2023/06/06 08:47:23;;;;;;;1999.90;999.90;;;15.30;99.90;;;;;;5053232;28;20071;-72
2023/06/06 08:49:50;;;;;;;1999.90;999.90;;;15.30;99.90;;;;;;5053810;28;20044;-73
2023/06/06 08:52:16;;;;;;;1999.90;999.90;;;15.40;99.90;;;;;;5051657;28;20049;-73
2023/06/06 08:54:43;;;;;;;1999.90;999.90;;;15.40;99.90;;;;;;5053618;28;20234;-72
2023/06/06 08:57:09;;;;;;;1999.90;999.90;;;15.50;99.90;;;;;;5055116;28;20084;-74
2023/06/06 08:59:37;;;;;;;1999.90;999.90;;;15.50;99.90;;;;;;5056986;28;20088;-74
2023/06/06 09:02:06;;;;;;;1999.90;999.90;;;15.60;99.90;;;;;;5056301;28;20140;-73
2023/06/06 09:04:33;;;;;;;1999.90;999.90;;;15.60;99.90;;;;;;5057651;28;20439;-72
2023/06/06 09:07:04;;;;;;;1999.90;999.90;;;15.70;99.90;;;;;;5057215;28;20045;-71
2023/06/06 09:09:33;;;;;;;1999.90;999.90;;;15.80;99.90;;;;;;5058214;28;20135;-73
2023/06/06 09:11:59;;;;;;;1999.90;999.90;;;15.80;99.90;;;;;;5057127;28;20041;-74
2023/06/06 09:14:26;;;;;;;1999.90;999.90;;;15.90;99.90;;;;;;5057240;28;20179;-71
2023/06/06 09:16:52;;;;;;;1999.90;999.90;;;15.90;99.90;;;;;;5056777;28;20053;-71
2023/06/06 09:19:25;;;;;;;1999.90;999.90;;;16.00;99.90;;;;;;5040350;28;20049;-72
2023/06/06 09:21:51;;;;;;;1999.90;999.90;;;16.00;99.90;;;;;;5056685;28;20483;-72
2023/06/06 09:24:17;;;;;;;1999.90;999.90;;;16.00;99.90;;;;;;5056138;28;20477;-73
2023/06/06 09:26:43;;;;;;;1999.90;999.90;;;16.10;99.90;;;;;;5056583;28;20090;-70
2023/06/06 09:29:11;;;;;;;1999.90;999.90;;;16.10;99.90;;;;;;5055324;28;20119;-73
2023/06/06 09:31:38;;;;;;;1999.90;999.90;;;16.10;99.90;;;;;;5056307;28;20056;-72
2023/06/06 09:34:06;;;;;;;1999.90;999.90;;;16.10;99.90;;;;;;5056340;28;20056;-74
2023/06/06 09:36:33;;;;;;;1999.90;999.90;;;16.10;99.90;;;;;;5056365;28;20049;-73
2023/06/06 09:39:04;;;;;;;1999.90;999.90;;;16.10;99.90;;;;;;5056538;28;20079;-74
2023/06/06 09:41:30;;;;;;;1999.90;999.90;;;16.10;99.90;;;;;;5056771;28;20488;-73
2023/06/06 09:43:56;;;;;;;1999.90;999.90;;;16.20;99.90;;;;;;5057030;28;20106;-71
2023/06/06 09:46:21;;;;;;;1999.90;999.90;;;16.20;99.90;;;;;;5056279;28;20068;-71
2023/06/06 09:48:58;;;;;;;1999.90;999.90;;;16.30;99.90;;;;;;5056355;28;20055;-69
2023/06/06 09:51:24;;;;;;;1999.90;999.90;;;16.40;99.90;;;;;;5054693;28;20041;-71
2023/06/06 09:53:51;;;;;;;1999.90;999.90;;;16.40;99.90;;;;;;5056573;28;20074;-72
2023/06/06 09:56:22;;;;;;;1999.90;999.90;;;16.40;99.90;;;;;;5055899;28;20044;-74
2023/06/06 09:58:56;;;;;;;1999.90;999.90;;;16.40;99.90;;;;;;5056472;28;20072;-71
2023/06/06 10:01:31;;;;;;;1999.90;999.90;;;16.50;99.90;;;;;;5055664;28;20053;-72
2023/06/06 10:03:57;;;;;;;1999.90;999.90;;;16.50;99.90;;;;;;5054482;28;20040;-68
2023/06/06 10:06:28;;;;;;;1999.90;999.90;;;16.50;99.90;;;;;;5057043;28;20066;-69
2023/06/06 10:08:55;;;;;;;1999.90;999.90;;;16.50;99.90;;;;;;5056326;28;20060;-69
2023/06/06 10:11:22;;;;;;;1999.90;999.90;;;16.50;99.90;;;;;;5055565;28;20052;-69
2023/06/06 10:13:51;;;;;;;1999.90;999.90;;;16.50;99.90;;;;;;5056380;28;20084;-69
2023/06/06 10:16:19;;;;;;;1999.90;999.90;;;16.50;99.90;;;;;;5055466;28;20045;-69
2023/06/06 10:18:46;;;;;;;1999.90;999.90;;;16.50;99.90;;;;;;5055270;28;20049;-69
2023/06/06 10:21:15;;;;;;;1999.90;999.90;;;16.50;99.90;;;;;;5054466;28;20553;-68
2023/06/06 10:23:42;;;;;;;1999.90;999.90;;;16.50;99.90;;;;;;5055323;28;20052;-69
2023/06/06 10:26:23;;;;;;;1999.90;999.90;;;16.60;99.90;;;;;;5055234;28;20044;-70
2023/06/06 10:29:01;;;;;;;1999.90;999.90;;;16.60;99.90;;;;;;5055081;28;20088;-70
2023/06/06 10:32:12;;;;;;;1999.90;999.90;;;16.60;99.90;;;;;;5055220;28;20570;-72
2023/06/06 10:34:41;;;;;;;1999.90;999.90;;;16.70;99.90;;;;;;5018636;28;20057;-70
2023/06/06 10:37:27;;;;;;;1999.90;999.90;;;16.70;99.90;;;;;;5055003;28;20041;-70
2023/06/06 10:40:14;;;;;;;1999.90;999.90;;;16.70;99.90;;;;;;5054656;28;20408;-71
2023/06/06 10:42:40;;;;;;;1999.90;999.90;;;16.80;99.90;;;;;;5056959;28;20506;-70
2023/06/06 10:45:07;;;;;;;1999.90;999.90;;;16.80;99.90;;;;;;5057104;28;20036;-70
2023/06/06 10:47:44;;;;;;;1999.90;999.90;;;16.80;99.90;;;;;;5054975;28;20052;-72
2023/06/06 10:50:10;;;;;;;1999.90;999.90;;;16.90;99.90;;;;;;5054656;28;20484;-73
2023/06/06 10:52:49;;;;;;;1999.90;999.90;;;17.00;99.90;;;;;;5054760;28;20049;-70
2023/06/06 10:55:16;;;;;;;1999.90;999.90;;;17.00;99.90;;;;;;5054781;28;20124;-69
2023/06/06 10:57:53;;;;;;;1999.90;999.90;;;17.00;99.90;;;;;;5055171;28;20088;-69
2023/06/06 11:00:25;;;;;;;1999.90;999.90;;;17.10;99.90;;;;;;5054633;28;20049;-69
2023/06/06 11:02:58;;;;;;;1999.90;999.90;;;17.20;99.90;;;;;;5054684;28;20048;-68
2023/06/06 11:05:24;;;;;;;1999.90;999.90;;;17.10;99.90;;;;;;5055092;28;20048;-68
2023/06/06 11:07:54;;;;;;;1999.90;999.90;;;17.20;99.90;;;;;;5054569;28;20048;-71
2023/06/06 11:10:24;;;;;;;1999.90;999.90;;;17.30;99.90;;;;;;5055155;28;20080;-73
2023/06/06 11:12:50;;;;;;;1999.90;999.90;;;17.30;99.90;;;;;;5054412;28;20071;-69
2023/06/06 11:15:31;;;;;;;1999.90;999.90;;;17.30;99.90;;;;;;5054045;28;20047;-69
2023/06/06 11:18:03;;;;;;;1999.90;999.90;;;17.30;99.90;;;;;;5055104;28;20132;-71
2023/06/06 11:20:37;;;;;;;1999.90;999.90;;;17.30;99.90;;;;;;5053451;28;20053;-72
2023/06/06 11:23:03;;;;;;;1999.90;999.90;;;17.30;99.90;;;;;;5054315;28;20045;-73
2023/06/06 11:25:35;;;;;;;1999.90;999.90;;;17.30;99.90;;;;;;5054059;28;20100;-72
2023/06/06 11:28:01;;;;;;;1999.90;999.90;;;17.30;99.90;;;;;;5054395;28;20481;-70
2023/06/06 11:30:31;;;;;;;1999.90;999.90;;;17.40;99.90;;;;;;5053936;28;20045;-70
2023/06/06 11:32:58;;;;;;;1999.90;999.90;;;17.30;99.90;;;;;;5054078;28;20056;-70
2023/06/06 11:35:24;;;;;;;1999.90;999.90;;;17.40;99.90;;;;;;5054002;28;20088;-72
2023/06/06 11:37:50;;;;;;;1999.90;999.90;;;17.30;99.90;;;;;;5053909;28;20040;-71
2023/06/06 11:40:16;;;;;;;1999.90;999.90;;;17.40;99.90;;;;;;5053860;28;20166;-69
2023/06/06 11:42:43;;;;;;;1999.90;999.90;;;17.30;99.90;;;;;;5053813;28;20041;-70
2023/06/06 11:45:13;;;;;;;1999.90;999.90;;;17.30;99.90;;;;;;5053689;28;20496;-72
2023/06/06 11:47:39;;;;;;;1999.90;999.90;;;17.30;99.90;;;;;;5054274;28;20167;-72
2023/06/06 11:50:05;;;;;;;1999.90;999.90;;;17.30;99.90;;;;;;5035908;28;20041;-72
2023/06/06 11:52:31;;;;;;;1999.90;999.90;;;17.30;99.90;;;;;;5054678;28;20053;-70
2023/06/06 11:55:04;;;;;;;1999.90;999.90;;;17.30;99.90;;;;;;5054384;28;20052;-71
2023/06/06 11:57:32;;;;;;;1999.90;999.90;;;17.30;99.90;;;;;;5053987;28;20049;-71
2023/06/06 12:00:07;;;;;;;1999.90;999.90;;;17.40;99.90;;;;;;5053459;28;20045;-72
2023/06/06 12:02:33;;;;;;;1999.90;999.90;;;17.50;99.90;;;;;;5052505;28;20072;-71